logo
Rechercher aéroport 
image banner adimage banner adimage banner ad
image banner ad

36VT - North Hero Passage

Situé à North Hero, United States

ICAO - 36VT, IATA -

Données fournies par Airmate  

Information générale

Coordonnées: N44°51'36" W73°16'57"
Élévation : 95 feet MSL.
 
Voir autres Aéroports à Vermont

Données opérationnelles

Special qualification required
Heure actuelle UTC:
Heure actuelle locale:
Météo à : KFSO - Franklin County State ( 17 km )
METAR: KFSO 180055Z AUTO 12003KT 10SM OVC110 19/14 A2995 RMK AO2 T01930143
Voir NOTAMs / SUP AIP / TFR affectant cet aéroport [VIEW]
Fréquences de communication: [VIEW]

Pistes:

Identifiant RWYQFULongueur (ft)Largeur (ft)SurfaceLDA (ft)
01W2500100WATER
19W2500100WATER

Coordonnées de l'aéroport

Adresse: North Hero United States

Vue satellite de 36VT